createdAt,value
2023-03-07T00:01:26.568Z,6.57
2023-03-07T00:03:55.108Z,6.59
2023-03-07T00:06:25.531Z,6.59
2023-03-07T00:08:56.511Z,6.59
2023-03-07T00:11:25.103Z,6.57
2023-03-07T00:13:54.191Z,6.56
2023-03-07T00:16:24.827Z,6.56
2023-03-07T00:18:53.454Z,6.56
2023-03-07T00:21:24.889Z,6.55
2023-03-07T00:23:54.497Z,6.55
2023-03-07T00:26:25.076Z,6.55
2023-03-07T00:28:55.095Z,6.56
2023-03-07T00:31:24.434Z,6.54
2023-03-07T00:33:53.281Z,6.58
2023-03-07T00:36:23.109Z,6.56
2023-03-07T00:38:53.613Z,6.58
2023-03-07T00:41:24.039Z,6.59
2023-03-07T00:43:52.888Z,6.59
2023-03-07T00:46:24.304Z,6.59
2023-03-07T00:48:53.396Z,6.59
2023-03-07T00:51:23.617Z,6.60
2023-03-07T00:53:53.544Z,6.61
2023-03-07T00:56:24.304Z,6.61
2023-03-07T00:58:53.799Z,6.62
2023-03-07T01:01:24.879Z,6.60
2023-03-07T01:03:54.396Z,6.60
2023-03-07T01:06:26.057Z,6.60
2023-03-07T01:08:58.947Z,6.60
2023-03-07T01:11:27.787Z,6.60
2023-03-07T01:13:57.491Z,6.60
2023-03-07T01:16:28.746Z,6.62
2023-03-07T01:19:00.107Z,6.63
2023-03-07T01:21:30.664Z,6.64
2023-03-07T01:24:00.859Z,6.66
2023-03-07T01:26:31.614Z,6.66
2023-03-07T01:29:02.291Z,6.65
2023-03-07T01:31:32.637Z,6.66
2023-03-07T01:34:02.384Z,6.66
2023-03-07T01:36:33.371Z,6.67
2023-03-07T01:39:07.361Z,6.69
2023-03-07T01:41:37.509Z,6.69
2023-03-07T01:44:16.280Z,6.71
2023-03-07T01:46:53.164Z,6.71
2023-03-07T01:49:27.188Z,6.71
2023-03-07T01:52:04.263Z,6.67
2023-03-07T01:54:38.639Z,6.67
2023-03-07T01:57:07.784Z,6.66
2023-03-07T01:59:41.665Z,6.64
2023-03-07T02:02:14.249Z,6.63
2023-03-07T02:04:46.192Z,6.61
2023-03-07T02:07:15.221Z,6.57
2023-03-07T02:09:47.837Z,6.57
2023-03-07T02:12:16.807Z,6.55
2023-03-07T02:14:47.503Z,6.53
2023-03-07T02:17:15.818Z,6.51
2023-03-07T02:20:01.502Z,6.49
2023-03-07T02:22:30.554Z,6.48
2023-03-07T02:25:04.229Z,6.48
2023-03-07T02:27:37.559Z,6.43
2023-03-07T02:30:07.803Z,6.44
2023-03-07T02:32:36.065Z,6.41
2023-03-07T02:35:12.538Z,6.39
2023-03-07T02:37:42.156Z,6.39
2023-03-07T02:40:14.467Z,6.37
2023-03-07T02:42:45.414Z,6.37
2023-03-07T02:45:16.958Z,6.35
2023-03-07T02:47:46.414Z,6.34
2023-03-07T02:50:16.222Z,6.30
2023-03-07T02:52:44.810Z,6.26
2023-03-07T02:55:13.365Z,6.26
2023-03-07T02:57:43.036Z,6.24
2023-03-07T03:00:13.250Z,6.19
2023-03-07T03:02:41.556Z,6.18
2023-03-07T03:05:10.713Z,6.16
2023-03-07T03:07:39.209Z,6.15
2023-03-07T03:10:09.047Z,6.15
2023-03-07T03:12:37.271Z,6.13
2023-03-07T03:15:08.961Z,6.14
2023-03-07T03:17:37.500Z,6.14
2023-03-07T03:20:08.892Z,6.16
2023-03-07T03:22:37.134Z,6.14
2023-03-07T03:25:06.641Z,6.14
2023-03-07T03:27:35.006Z,6.17
2023-03-07T03:30:04.651Z,6.14
2023-03-07T03:32:34.486Z,6.16
2023-03-07T03:35:02.757Z,6.16
2023-03-07T03:37:31.626Z,6.15
2023-03-07T03:39:59.888Z,6.16
2023-03-07T03:42:28.168Z,6.18
2023-03-07T03:44:56.430Z,6.20
2023-03-07T03:47:24.666Z,6.21
2023-03-07T03:49:54.289Z,6.21
2023-03-07T03:52:23.478Z,6.24
2023-03-07T03:54:51.720Z,6.21
2023-03-07T03:57:20.681Z,6.23
2023-03-07T03:59:49.249Z,6.23
2023-03-07T04:02:17.652Z,6.23
2023-03-07T04:04:46.102Z,6.23
2023-03-07T04:07:15.692Z,6.24
2023-03-07T04:09:44.139Z,6.25
2023-03-07T04:12:12.378Z,6.28
2023-03-07T04:14:40.649Z,6.29
2023-03-07T04:17:08.843Z,6.32
2023-03-07T04:19:37.092Z,6.34
2023-03-07T04:22:05.608Z,6.38
2023-03-07T04:24:35.228Z,6.40
2023-03-07T04:27:03.460Z,6.38
2023-03-07T04:29:31.919Z,6.43
2023-03-07T04:32:00.261Z,6.43
2023-03-07T04:34:28.592Z,6.44
2023-03-07T04:36:56.804Z,6.46
2023-03-07T04:39:25.028Z,6.46
2023-03-07T04:41:54.634Z,6.46
2023-03-07T04:44:22.913Z,6.46
2023-03-07T04:46:51.136Z,6.44
2023-03-07T04:49:19.411Z,6.43
2023-03-07T04:51:47.657Z,6.43
2023-03-07T04:54:15.895Z,6.42
2023-03-07T04:56:44.238Z,6.39
2023-03-07T04:59:13.817Z,6.35
2023-03-07T05:01:42.179Z,6.31
2023-03-07T05:04:10.414Z,6.29
2023-03-07T05:06:38.723Z,6.23
2023-03-07T05:09:07.048Z,6.19
2023-03-07T05:11:35.315Z,6.15
2023-03-07T05:14:03.518Z,6.11
2023-03-07T05:16:33.608Z,6.05
2023-03-07T05:19:02.925Z,5.98
2023-03-07T05:21:32.655Z,5.94
2023-03-07T05:24:00.980Z,5.89
2023-03-07T05:26:29.188Z,5.82
2023-03-07T05:28:57.468Z,5.78
2023-03-07T05:31:26.329Z,5.74
2023-03-07T05:33:56.097Z,5.70
2023-03-07T05:36:24.749Z,5.68
2023-03-07T05:38:53.638Z,5.64
2023-03-07T05:41:21.892Z,5.61
2023-03-07T05:43:50.304Z,5.61
2023-03-07T05:46:18.645Z,5.62
2023-03-07T05:48:46.898Z,5.59
2023-03-07T05:51:16.669Z,5.58
2023-03-07T05:53:46.508Z,5.58
2023-03-07T05:56:15.107Z,5.58
2023-03-07T05:58:43.404Z,5.57
2023-03-07T06:01:11.611Z,5.58
2023-03-07T06:03:39.953Z,5.57
2023-03-07T06:06:09.181Z,5.58
2023-03-07T06:08:38.793Z,5.57
2023-03-07T06:11:07.358Z,5.56
2023-03-07T06:13:35.662Z,5.55
2023-03-07T06:16:04.064Z,5.55
2023-03-07T06:18:32.374Z,5.57
2023-03-07T06:21:03.293Z,5.57
2023-03-07T06:23:34.073Z,5.58
2023-03-07T06:26:04.789Z,5.60
2023-03-07T06:28:33.408Z,5.63
2023-03-07T06:31:02.124Z,5.64
2023-03-07T06:33:30.407Z,5.68
2023-03-07T06:35:58.651Z,5.71
2023-03-07T06:38:27.961Z,5.76
2023-03-07T06:40:59.309Z,5.77
2023-03-07T06:43:29.273Z,5.80
2023-03-07T06:45:57.786Z,5.85
2023-03-07T06:48:26.732Z,5.91
2023-03-07T06:50:54.970Z,5.96
2023-03-07T06:53:23.301Z,6.02
2023-03-07T06:55:52.715Z,6.06
2023-03-07T06:58:20.981Z,6.13
2023-03-07T07:00:50.572Z,6.17
2023-03-07T07:03:21.019Z,6.14
2023-03-07T07:05:49.317Z,6.24
2023-03-07T07:08:17.652Z,6.27
2023-03-07T07:10:46.024Z,6.34
2023-03-07T07:13:15.112Z,6.41
2023-03-07T07:15:43.364Z,6.47
2023-03-07T07:18:14.957Z,6.53
2023-03-07T07:20:43.272Z,6.60
2023-03-07T07:23:11.562Z,6.66
2023-03-07T07:25:40.233Z,6.67
2023-03-07T07:28:08.498Z,6.69
2023-03-07T07:30:36.768Z,6.74
2023-03-07T07:33:05.308Z,6.77
2023-03-07T07:35:35.085Z,6.79
2023-03-07T07:38:03.543Z,6.85
2023-03-07T07:40:31.888Z,6.90
2023-03-07T07:43:00.140Z,6.92
2023-03-07T07:45:28.488Z,6.97
2023-03-07T07:47:56.752Z,7.03
2023-03-07T07:50:25.553Z,7.09
2023-03-07T07:52:56.025Z,7.14
2023-03-07T07:55:25.238Z,7.23
2023-03-07T07:57:53.785Z,7.32
2023-03-07T08:00:22.804Z,7.43
2023-03-07T08:02:51.900Z,7.50
2023-03-07T08:05:21.704Z,7.61
2023-03-07T08:07:50.808Z,7.74
2023-03-07T08:10:21.793Z,7.81
2023-03-07T08:12:52.476Z,7.91
2023-03-07T08:15:22.353Z,8.00
2023-03-07T08:17:51.429Z,8.03
2023-03-07T08:20:22.378Z,8.12
2023-03-07T08:22:52.895Z,8.19
2023-03-07T08:25:25.170Z,8.28
2023-03-07T08:27:55.270Z,8.35
2023-03-07T08:30:24.703Z,8.42
2023-03-07T08:32:54.388Z,8.47
2023-03-07T08:35:23.101Z,8.53
2023-03-07T08:37:56.854Z,8.60
2023-03-07T08:40:27.360Z,8.63
2023-03-07T08:42:56.143Z,8.67
2023-03-07T08:45:24.827Z,8.69
2023-03-07T08:47:54.818Z,8.74
2023-03-07T08:50:24.472Z,8.75
2023-03-07T08:52:52.921Z,8.79
2023-03-07T08:55:21.392Z,8.82
2023-03-07T08:57:51.117Z,8.82
2023-03-07T09:00:20.828Z,8.90
2023-03-07T09:02:49.172Z,8.95
2023-03-07T09:05:17.631Z,8.97
2023-03-07T09:07:45.880Z,9.05
2023-03-07T09:10:14.185Z,9.06
2023-03-07T09:12:42.419Z,9.09
2023-03-07T09:15:12.747Z,9.17
2023-03-07T09:17:41.171Z,9.22
2023-03-07T09:20:11.814Z,9.26
2023-03-07T09:22:40.224Z,9.38
2023-03-07T09:25:09.514Z,9.44
2023-03-07T09:27:37.900Z,9.64
2023-03-07T09:30:08.148Z,9.77
2023-03-07T09:32:38.050Z,10.00
2023-03-07T09:35:07.446Z,10.14
2023-03-07T09:37:35.746Z,10.29
2023-03-07T09:40:07.243Z,10.50
2023-03-07T09:42:46.445Z,10.66
2023-03-07T09:45:34.870Z,10.82
2023-03-07T09:48:47.167Z,10.96
2023-03-07T09:51:20.075Z,11.03
2023-03-07T09:53:53.196Z,11.14
2023-03-07T09:56:26.516Z,11.17
2023-03-07T09:59:08.538Z,11.25
2023-03-07T10:01:43.955Z,11.31
2023-03-07T10:04:23.101Z,11.34
2023-03-07T10:06:58.285Z,11.48
2023-03-07T10:09:27.306Z,11.57
2023-03-07T10:12:28.482Z,11.71
2023-03-07T10:15:20.189Z,11.82
2023-03-07T10:18:09.126Z,11.94
2023-03-07T10:20:47.361Z,11.99
2023-03-07T10:23:32.555Z,12.06
2023-03-07T10:26:09.509Z,12.10
2023-03-07T12:35:05.703Z,15.08
2023-03-07T12:37:43.600Z,15.19
2023-03-07T12:40:21.457Z,15.34
2023-03-07T12:42:58.476Z,15.52
2023-03-07T12:45:29.825Z,15.66
2023-03-07T12:48:07.317Z,15.77
2023-03-07T12:50:46.772Z,15.88
2023-03-07T12:53:24.640Z,15.93
2023-03-07T12:55:58.564Z,15.99
2023-03-07T12:58:38.541Z,15.95
2023-03-07T13:01:15.468Z,16.03
2023-03-07T13:03:52.144Z,16.07
2023-03-07T13:06:23.933Z,16.04
2023-03-07T13:08:55.504Z,16.08
2023-03-07T13:11:27.654Z,16.09
2023-03-07T13:13:59.464Z,16.02
2023-03-07T13:16:43.528Z,15.93
2023-03-07T13:20:04.946Z,15.90
2023-03-07T13:23:14.534Z,15.90
2023-03-07T13:25:58.164Z,15.88
2023-03-07T13:28:51.237Z,15.89
2023-03-07T13:31:43.661Z,15.84
2023-03-07T13:34:51.675Z,15.92
2023-03-07T13:37:54.342Z,15.98
2023-03-07T13:40:58.513Z,15.99
2023-03-07T13:44:01.449Z,16.03
2023-03-07T13:46:58.719Z,16.01
2023-03-07T13:49:44.359Z,16.01
2023-03-07T13:52:39.150Z,16.02
2023-03-07T13:55:25.790Z,16.00
2023-03-07T13:57:59.257Z,16.00
2023-03-07T14:00:39.495Z,15.91
2023-03-07T14:03:27.934Z,15.87
2023-03-07T14:05:59.964Z,15.86
2023-03-07T14:08:35.544Z,15.80
2023-03-07T14:11:04.310Z,15.77
2023-03-07T14:14:16.462Z,15.69
2023-03-07T14:17:13.649Z,15.60
2023-03-07T14:19:56.417Z,15.62
2023-03-07T14:22:55.983Z,15.56
2023-03-07T14:25:26.414Z,15.54
2023-03-07T14:27:58.620Z,15.42
2023-03-07T14:30:31.481Z,15.34
2023-03-07T14:33:00.897Z,15.20
2023-03-07T14:35:42.680Z,15.06
2023-03-07T14:38:21.077Z,14.95
2023-03-07T14:41:22.075Z,14.84
2023-03-07T14:44:03.898Z,14.74
2023-03-07T14:46:43.025Z,14.68
2023-03-07T14:49:24.770Z,14.58
2023-03-07T14:51:53.149Z,14.51
2023-03-07T14:54:27.880Z,14.44
2023-03-07T14:56:56.436Z,14.38
2023-03-07T14:59:29.090Z,14.31
2023-03-07T15:02:00.113Z,14.21
2023-03-07T15:04:30.763Z,14.16
2023-03-07T15:07:01.302Z,14.11
2023-03-07T15:09:30.591Z,14.03
2023-03-07T15:12:06.044Z,13.96
2023-03-07T15:14:46.034Z,13.90
2023-03-07T15:17:20.413Z,13.83
2023-03-07T15:19:51.843Z,13.77
2023-03-07T15:22:25.689Z,13.68
2023-03-07T15:24:54.665Z,13.64
2023-03-07T15:27:26.664Z,13.59
2023-03-07T15:29:56.314Z,13.54
2023-03-07T15:32:36.086Z,13.48
2023-03-07T15:35:17.193Z,13.42
2023-03-07T15:37:56.924Z,13.29
2023-03-07T15:40:30.915Z,13.27
2023-03-07T15:43:15.261Z,13.20
2023-03-07T15:45:45.792Z,13.11
2023-03-07T15:48:28.119Z,13.08
2023-03-07T15:50:58.998Z,12.99
2023-03-07T15:53:31.327Z,12.95
2023-03-07T15:56:02.267Z,12.94
2023-03-07T15:58:33.754Z,12.87
2023-03-07T16:01:19.654Z,12.79
2023-03-07T16:03:54.344Z,12.74
2023-03-07T16:06:38.167Z,12.69
2023-03-07T16:09:07.192Z,12.65
2023-03-07T16:11:38.046Z,12.60
2023-03-07T16:14:06.554Z,12.54
2023-03-07T16:16:34.931Z,12.51
2023-03-07T16:19:04.583Z,12.47
2023-03-07T16:21:32.837Z,12.46
2023-03-07T16:24:01.124Z,12.44
2023-03-07T16:26:29.948Z,12.40
2023-03-07T16:28:58.264Z,12.38
2023-03-07T16:31:26.659Z,12.35
2023-03-07T16:33:55.938Z,12.32
2023-03-07T16:36:25.568Z,12.29
2023-03-07T16:38:53.839Z,12.25
2023-03-07T16:41:23.418Z,12.20
2023-03-07T16:43:55.585Z,12.16
2023-03-07T16:46:25.433Z,12.11
2023-03-07T16:48:53.710Z,12.05
2023-03-07T16:51:26.052Z,12.00
2023-03-07T16:53:56.719Z,11.94
2023-03-07T16:56:32.465Z,11.84
2023-03-07T16:59:01.760Z,11.80
2023-03-07T17:01:30.176Z,11.74
2023-03-07T17:03:58.465Z,11.68
2023-03-07T17:06:38.828Z,11.61
2023-03-07T17:09:09.492Z,11.54
2023-03-07T17:11:39.370Z,11.43
2023-03-07T17:14:10.127Z,11.38
2023-03-07T17:16:44.882Z,11.30
2023-03-07T17:19:28.525Z,11.21
2023-03-07T17:22:01.871Z,11.13
2023-03-07T17:24:31.226Z,11.07
2023-03-07T17:27:03.545Z,10.99
2023-03-07T17:29:37.344Z,10.90
2023-03-07T17:32:06.748Z,10.83
2023-03-07T17:34:37.093Z,10.77
2023-03-07T17:37:08.181Z,10.70
2023-03-07T17:39:36.728Z,10.64
2023-03-07T17:42:05.576Z,10.57
2023-03-07T17:44:34.777Z,10.50
2023-03-07T17:47:03.056Z,10.43
2023-03-07T17:49:35.431Z,10.36
2023-03-07T17:52:06.667Z,10.28
2023-03-07T17:54:35.112Z,10.21
2023-03-07T17:57:04.216Z,10.14
2023-03-07T17:59:33.515Z,10.06
2023-03-07T18:02:02.048Z,9.98
2023-03-07T18:04:31.391Z,9.92
2023-03-07T18:06:59.818Z,9.87
2023-03-07T18:09:29.531Z,9.82
2023-03-07T18:11:58.168Z,9.73
2023-03-07T18:14:26.707Z,9.68
2023-03-07T18:16:55.188Z,9.62
2023-03-07T18:19:27.053Z,9.56
2023-03-07T18:21:56.273Z,9.49
2023-03-07T18:24:29.976Z,9.43
2023-03-07T18:27:00.168Z,9.36
2023-03-07T18:29:29.521Z,9.31
2023-03-07T18:31:57.890Z,9.26
2023-03-07T18:34:26.269Z,9.20
2023-03-07T18:36:54.904Z,9.15
2023-03-07T18:39:24.888Z,9.09
2023-03-07T18:41:54.585Z,9.03
2023-03-07T18:44:22.892Z,8.98
2023-03-07T18:46:51.340Z,8.92
2023-03-07T18:49:19.718Z,8.88
2023-03-07T18:51:48.577Z,8.83
2023-03-07T18:54:16.972Z,8.78
2023-03-07T18:56:47.871Z,8.73
2023-03-07T18:59:18.560Z,8.68
2023-03-07T19:01:50.189Z,8.62
2023-03-07T19:04:19.072Z,8.57
2023-03-07T19:06:48.271Z,8.53
2023-03-07T19:09:18.752Z,8.47
2023-03-07T19:11:47.619Z,8.42
2023-03-07T19:14:17.352Z,8.37
2023-03-07T19:16:46.399Z,8.32
2023-03-07T19:19:14.956Z,8.27
2023-03-07T19:21:43.401Z,8.22
2023-03-07T19:24:13.102Z,8.18
2023-03-07T19:26:42.758Z,8.13
2023-03-07T19:29:12.665Z,8.09
2023-03-07T19:31:43.976Z,8.01
2023-03-07T19:34:13.029Z,7.99
2023-03-07T19:36:42.483Z,7.91
2023-03-07T19:39:15.123Z,7.90
2023-03-07T19:41:45.407Z,7.86
2023-03-07T19:44:13.737Z,7.82
2023-03-07T19:46:46.365Z,7.80
2023-03-07T19:49:15.557Z,7.78
2023-03-07T19:51:44.077Z,7.76
2023-03-07T19:54:15.016Z,7.72
2023-03-07T19:56:45.018Z,7.71
2023-03-07T19:59:14.709Z,7.69
2023-03-07T20:01:44.747Z,7.67
2023-03-07T20:04:13.697Z,7.66
2023-03-07T20:06:43.366Z,7.63
2023-03-07T20:09:13.068Z,7.61
2023-03-07T20:11:43.378Z,7.59
2023-03-07T20:14:13.253Z,7.54
2023-03-07T20:16:43.500Z,7.52
2023-03-07T20:19:11.933Z,7.48
2023-03-07T20:21:42.400Z,7.45
2023-03-07T20:24:10.902Z,7.42
2023-03-07T20:26:40.742Z,7.39
2023-03-07T20:29:10.819Z,7.38
2023-03-07T20:31:40.310Z,7.36
2023-03-07T20:34:10.125Z,7.33
2023-03-07T20:36:39.742Z,7.31
2023-03-07T20:39:14.343Z,7.28
2023-03-07T20:41:44.074Z,7.27
2023-03-07T20:44:15.186Z,7.24
2023-03-07T20:46:44.324Z,7.24
2023-03-07T20:49:16.340Z,7.24
2023-03-07T20:51:44.896Z,7.24
2023-03-07T20:54:15.600Z,7.24
2023-03-07T20:56:45.634Z,7.24
2023-03-07T20:59:16.434Z,7.25
2023-03-07T21:01:45.378Z,7.24
2023-03-07T21:04:18.472Z,7.23
2023-03-07T21:06:48.586Z,7.24
2023-03-07T21:09:18.888Z,7.25
2023-03-07T21:11:49.121Z,7.25
2023-03-07T21:14:19.343Z,7.26
2023-03-07T21:16:47.857Z,7.26
2023-03-07T21:19:17.581Z,7.27
2023-03-07T21:21:46.249Z,7.49
2023-03-07T21:24:15.608Z,7.51
2023-03-07T21:26:44.145Z,7.48
2023-03-07T21:29:13.908Z,7.43
2023-03-07T21:31:42.343Z,7.37
2023-03-07T21:34:15.166Z,7.32
2023-03-07T21:36:46.038Z,7.30
2023-03-07T21:39:14.447Z,7.27
2023-03-07T21:41:42.739Z,7.24
2023-03-07T21:44:11.655Z,7.21
2023-03-07T21:46:39.941Z,7.18
2023-03-07T21:49:08.496Z,7.18
2023-03-07T21:51:36.732Z,7.17
2023-03-07T21:54:06.634Z,7.19
2023-03-07T21:56:34.940Z,7.15
2023-03-07T21:59:03.265Z,7.14
2023-03-07T22:01:31.625Z,7.14
2023-03-07T22:04:01.094Z,7.11
2023-03-07T22:06:29.924Z,7.12
2023-03-07T22:08:59.625Z,7.05
2023-03-07T22:11:29.264Z,7.01
2023-03-07T22:13:57.578Z,7.01
2023-03-07T22:16:25.942Z,7.01
2023-03-07T22:18:56.323Z,6.97
2023-03-07T22:21:26.608Z,6.92
2023-03-07T22:23:57.688Z,6.94
2023-03-07T22:26:29.062Z,6.88
2023-03-07T22:28:57.573Z,6.87
2023-03-07T22:31:26.871Z,6.81
2023-03-07T22:33:55.286Z,6.91
2023-03-07T22:36:23.555Z,6.95
2023-03-07T22:38:56.270Z,7.04
2023-03-07T22:41:26.501Z,7.09
2023-03-07T22:43:56.204Z,7.16
2023-03-07T22:46:24.788Z,7.23
2023-03-07T22:48:54.752Z,7.29
2023-03-07T22:51:24.761Z,7.35
2023-03-07T22:53:53.604Z,7.42
2023-03-07T22:56:24.291Z,7.45
2023-03-07T22:58:52.767Z,7.49
2023-03-07T23:01:25.099Z,7.52
2023-03-07T23:03:55.550Z,7.54
2023-03-07T23:06:27.018Z,7.52
2023-03-07T23:08:55.607Z,7.56
2023-03-07T23:11:25.829Z,7.60
2023-03-07T23:13:54.755Z,7.64
2023-03-07T23:16:26.763Z,7.68
2023-03-07T23:18:58.334Z,7.72
2023-03-07T23:21:30.068Z,7.74
2023-03-07T23:23:59.427Z,7.78
2023-03-07T23:26:30.125Z,7.78
2023-03-07T23:28:58.636Z,7.79
2023-03-07T23:31:30.160Z,7.76
2023-03-07T23:34:00.887Z,7.77
2023-03-07T23:36:31.281Z,7.75
2023-03-07T23:39:00.868Z,7.71
2023-03-07T23:41:29.538Z,7.70
2023-03-07T23:44:00.208Z,7.65
2023-03-07T23:46:30.857Z,7.62
2023-03-07T23:48:59.730Z,7.61
2023-03-07T23:51:28.134Z,7.56
2023-03-07T23:53:56.528Z,7.55
2023-03-07T23:56:24.796Z,7.52
2023-03-07T23:58:53.817Z,7.51
